Time;durP1;ratioP1;P1;durP2;ratioP2;P2;SDS_P1;SDS_P2;PMS_P1;PMS_P2;Temp;Humidity;BMP_temperature;BMP_pressure;BME280_temperature;BME280_humidity;BME280_pressure;Samples;Min_cycle;Max_cycle;Signal;HPM_P1;HPM_P2
2023/10/15 00:00:18;;;;;;;2.22;2.00;;;;;;;11.86;100.00;96305.97;6279463;22;20050;-79
2023/10/15 00:02:48;;;;;;;1.85;1.75;;;;;;;11.77;100.00;96305.94;6307849;22;20014;-80
2023/10/15 00:05:17;;;;;;;6.97;1.60;;;;;;;11.72;100.00;96306.38;6305984;22;20334;-80
2023/10/15 00:07:44;;;;;;;1.80;1.40;;;;;;;11.85;100.00;96299.03;6307241;22;20413;-80
2023/10/15 00:10:13;;;;;;;4.82;1.50;;;;;;;11.75;100.00;96300.81;6307929;22;19999;-80
2023/10/15 00:12:39;;;;;;;1.58;1.42;;;;;;;11.80;100.00;96297.75;6306613;22;19992;-80
2023/10/15 00:15:15;;;;;;;2.78;1.60;;;;;;;11.80;100.00;96305.66;6306168;22;19999;-80
2023/10/15 00:17:42;;;;;;;2.50;1.60;;;;;;;11.74;100.00;96301.78;6307753;22;20433;-79
2023/10/15 00:20:13;;;;;;;2.38;1.60;;;;;;;11.66;100.00;96315.63;6306510;22;19999;-79
2023/10/15 00:22:39;;;;;;;1.98;1.30;;;;;;;11.64;100.00;96330.75;6307604;22;20435;-80
2023/10/15 00:25:11;;;;;;;2.90;1.83;;;;;;;11.69;100.00;96322.44;6307706;22;20003;-80
2023/10/15 00:27:37;;;;;;;2.33;1.58;;;;;;;11.67;100.00;96319.09;6306958;22;20083;-80
2023/10/15 00:30:06;;;;;;;1.90;1.75;;;;;;;11.60;100.00;96319.63;6280573;22;20003;-80
2023/10/15 00:32:32;;;;;;;1.83;1.50;;;;;;;11.59;100.00;96309.19;6307602;22;20015;-80
2023/10/15 00:34:58;;;;;;;2.30;1.45;;;;;;;11.56;100.00;96312.09;6307414;22;19995;-80
2023/10/15 00:37:24;;;;;;;2.55;1.77;;;;;;;11.60;100.00;96324.06;6306810;22;20050;-80
2023/10/15 00:39:50;;;;;;;2.65;1.50;;;;;;;11.53;100.00;96315.88;6307674;22;19995;-80
2023/10/15 00:42:15;;;;;;;2.70;1.73;;;;;;;11.49;100.00;96326.81;6305086;22;20169;-79
2023/10/15 00:44:41;;;;;;;2.50;1.75;;;;;;;11.56;100.00;96312.97;6278517;22;20088;-80
2023/10/15 00:47:15;;;;;;;3.03;1.55;;;;;;;11.49;100.00;96311.81;6280392;22;20026;-80
2023/10/15 00:49:43;;;;;;;3.30;1.58;;;;;;;11.48;100.00;96311.94;6281439;22;20010;-79
2023/10/15 00:52:09;;;;;;;3.60;1.70;;;;;;;11.45;100.00;96310.41;6308052;22;20050;-79
2023/10/15 00:54:37;;;;;;;2.90;1.77;;;;;;;11.41;100.00;96312.47;6278889;22;20006;-80
2023/10/15 00:57:25;;;;;;;2.65;1.67;;;;;;;11.43;100.00;96318.47;6307883;22;20470;-80
2023/10/15 00:59:49;;;;;;;4.32;1.70;;;;;;;11.46;100.00;96315.56;6306674;22;20265;-80
2023/10/15 01:02:22;;;;;;;5.70;1.60;;;;;;;11.40;100.00;96321.38;6307092;22;19999;-80
2023/10/15 01:04:50;;;;;;;2.50;1.60;;;;;;;11.45;100.00;96327.06;6306819;22;20438;-80
2023/10/15 01:10:31;;;;;;;2.00;1.70;;;;;;;11.45;100.00;96320.94;6273717;22;20004;-80
2023/10/15 01:12:57;;;;;;;2.72;1.83;;;;;;;11.39;100.00;96321.47;6274155;22;19995;-80
2023/10/15 01:15:22;;;;;;;2.17;1.60;;;;;;;11.34;100.00;96335.03;6265321;22;20006;-80
2023/10/15 01:17:53;;;;;;;3.70;1.70;;;;;;;11.34;100.00;96334.22;6308335;22;20510;-80
2023/10/15 01:20:23;;;;;;;2.25;1.80;;;;;;;11.34;100.00;96324.50;6280694;22;20427;-80
2023/10/15 01:22:50;;;;;;;2.33;1.73;;;;;;;11.34;100.00;96324.50;6307691;22;20003;-80
2023/10/15 01:25:24;;;;;;;1.85;1.63;;;;;;;11.40;100.00;96312.59;6280847;22;20006;-79
2023/10/15 01:27:58;;;;;;;3.05;1.70;;;;;;;11.35;100.00;96309.53;6308239;22;20468;-80
2023/10/15 01:30:24;;;;;;;2.30;1.70;;;;;;;11.41;100.00;96298.44;6308216;22;19999;-80
2023/10/15 01:32:50;;;;;;;4.53;1.83;;;;;;;11.27;100.00;96307.56;6307866;22;20461;-80
2023/10/15 01:35:19;;;;;;;2.17;1.60;;;;;;;11.25;100.00;96309.47;6307618;22;20023;-80
2023/10/15 01:38:09;;;;;;;2.88;1.70;;;;;;;11.24;100.00;96308.63;6308683;22;20003;-79
2023/10/15 01:40:40;;;;;;;1.75;1.50;;;;;;;11.26;100.00;96300.63;6307735;22;20007;-79
2023/10/15 01:43:12;;;;;;;2.58;1.60;;;;;;;11.34;100.00;96286.78;6306894;22;19999;-80
2023/10/15 01:45:40;;;;;;;1.85;1.52;;;;;;;11.29;100.00;96289.81;6307904;22;20313;-79
2023/10/15 01:48:30;;;;;;;2.97;1.85;;;;;;;11.22;100.00;96293.94;6280682;22;20412;-80
2023/10/15 01:51:04;;;;;;;4.10;1.83;;;;;;;11.18;100.00;96307.38;6305755;22;19996;-79
2023/10/15 01:53:34;;;;;;;3.38;1.85;;;;;;;11.24;100.00;96305.19;6307719;22;20018;-79
2023/10/15 01:56:02;;;;;;;2.05;1.80;;;;;;;11.24;100.00;96297.28;6279609;22;20007;-79
2023/10/15 01:58:46;;;;;;;1.85;1.63;;;;;;;11.26;100.00;96292.69;6306618;22;20026;-79
2023/10/15 02:01:13;;;;;;;4.38;1.70;;;;;;;11.27;100.00;96297.84;6307893;22;20003;-79
2023/10/15 02:03:42;;;;;;;3.15;1.70;;;;;;;11.20;100.00;96301.97;6306869;22;20062;-78
2023/10/15 02:06:08;;;;;;;2.53;1.88;;;;;;;11.19;100.00;96305.56;6280329;22;19999;-79
2023/10/15 02:08:37;;;;;;;3.25;1.67;;;;;;;11.18;100.00;96303.91;6307675;22;19995;-78
2023/10/15 02:11:16;;;;;;;2.83;1.77;;;;;;;11.19;100.00;96300.28;6280869;22;20022;-79
2023/10/15 02:13:45;;;;;;;1.98;1.75;;;;;;;11.22;100.00;96292.13;6308057;22;20292;-79
2023/10/15 02:16:15;;;;;;;2.45;2.05;;;;;;;11.22;100.00;96280.75;6305743;22;19999;-78
2023/10/15 02:18:45;;;;;;;1.80;1.70;;;;;;;11.29;100.00;96273.97;6280065;22;20030;-78
2023/10/15 02:21:16;;;;;;;2.85;1.70;;;;;;;11.23;100.00;96259.53;6306376;22;20007;-78
2023/10/15 02:23:48;;;;;;;2.13;1.70;;;;;;;11.25;100.00;96254.13;6307267;22;20345;-78
2023/10/15 02:26:18;;;;;;;1.90;1.70;;;;;;;11.23;100.00;96263.97;6306261;22;20018;-78
2023/10/15 02:28:46;;;;;;;5.07;1.92;;;;;;;11.18;100.00;96267.00;6307050;22;19999;-78
2023/10/15 02:31:19;;;;;;;3.45;2.03;;;;;;;11.17;100.00;96274.09;6306587;22;19995;-79
2023/10/15 02:33:45;;;;;;;2.22;1.75;;;;;;;11.15;100.00;96278.63;6280084;22;20023;-79
2023/10/15 02:36:15;;;;;;;2.17;1.92;;;;;;;11.14;100.00;96276.13;6306769;22;20009;-78
2023/10/15 02:38:52;;;;;;;3.10;1.67;;;;;;;11.12;100.00;96275.44;6307158;22;20023;-79
2023/10/15 02:41:18;;;;;;;2.20;1.70;;;;;;;11.10;100.00;96267.66;6307279;22;20083;-78
2023/10/15 02:43:51;;;;;;;2.00;1.80;;;;;;;11.09;100.00;96275.69;6306434;22;20070;-79
2023/10/15 02:46:23;;;;;;;2.33;2.03;;;;;;;11.07;100.00;96280.28;6305947;22;19996;-78
2023/10/15 02:48:54;;;;;;;3.83;1.98;;;;;;;11.06;100.00;96271.53;6307182;22;21075;-79
2023/10/15 02:51:23;;;;;;;2.53;1.77;;;;;;;11.01;100.00;96276.34;6306542;22;20297;-79
2023/10/15 02:53:52;;;;;;;2.80;1.48;;;;;;;11.02;100.00;96270.94;6306981;22;19999;-79
2023/10/15 02:56:18;;;;;;;2.95;1.65;;;;;;;10.99;100.00;96268.56;6305568;22;19999;-78
2023/10/15 02:58:45;;;;;;;2.75;1.65;;;;;;;10.96;100.00;96262.75;6306574;22;20012;-79
2023/10/15 03:01:17;;;;;;;3.40;2.10;;;;;;;10.98;100.00;96287.16;6278228;22;20027;-78
2023/10/15 03:03:48;;;;;;;3.22;1.85;;;;;;;10.95;100.00;96276.88;6307677;22;20322;-78
2023/10/15 03:06:18;;;;;;;5.35;1.90;;;;;;;11.13;100.00;96274.47;6280443;22;20007;-78
2023/10/15 03:08:45;;;;;;;3.90;2.05;;;;;;;10.96;100.00;96270.66;6279269;22;20078;-79
2023/10/15 03:11:14;;;;;;;3.13;2.20;;;;;;;10.88;100.00;96277.38;6308865;22;20180;-78
2023/10/15 03:13:55;;;;;;;2.85;1.70;;;;;;;10.87;100.00;96277.53;6309492;22;20011;-77
2023/10/15 03:16:26;;;;;;;3.13;1.95;;;;;;;10.88;100.00;96280.00;6309203;22;20070;-78
2023/10/15 03:18:52;;;;;;;2.33;2.10;;;;;;;10.85;100.00;96277.63;6309348;22;19999;-78
2023/10/15 03:21:26;;;;;;;3.15;2.15;;;;;;;10.87;100.00;96273.06;6309053;22;20058;-78
2023/10/15 03:23:56;;;;;;;5.32;1.98;;;;;;;10.85;100.00;96287.34;6308721;22;20309;-78
2023/10/15 03:26:33;;;;;;;4.40;2.17;;;;;;;10.78;100.00;96287.03;6309333;22;20072;-78
2023/10/15 03:28:59;;;;;;;3.92;2.33;;;;;;;10.77;100.00;96290.63;6309274;22;20003;-78
2023/10/15 03:31:27;;;;;;;5.53;2.42;;;;;;;10.74;100.00;96290.88;6282588;22;19991;-78
2023/10/15 03:36:46;;;;;;;3.17;2.03;;;;;;;10.73;100.00;96291.84;6306599;22;20003;-79
2023/10/15 03:39:57;;;;;;;4.20;2.13;;;;;;;10.72;100.00;96295.41;6309327;22;19995;-78
2023/10/15 03:42:09;;;;;;;3.33;2.35;;;;;;;10.73;100.00;96286.59;6297359;22;20086;-78
2023/10/15 03:44:44;;;;;;;2.83;2.10;;;;;;;10.72;100.00;96298.06;6309150;22;20270;-79
2023/10/15 03:47:11;;;;;;;4.68;2.20;;;;;;;10.70;100.00;96307.88;6309959;22;19999;-77
2023/10/15 03:49:37;;;;;;;4.80;2.13;;;;;;;10.66;100.00;96298.56;6309974;22;20015;-77
2023/10/15 03:52:07;;;;;;;4.38;2.05;;;;;;;10.65;100.00;96303.03;6310927;22;20358;-78
2023/10/15 03:54:33;;;;;;;3.47;2.22;;;;;;;10.59;100.00;96306.16;6285185;22;20017;-78
2023/10/15 03:57:00;;;;;;;3.58;2.20;;;;;;;10.62;100.00;96316.44;6284034;22;19999;-78
2023/10/15 03:59:26;;;;;;;8.63;2.70;;;;;;;10.54;100.00;96310.97;6309954;22;19995;-78
2023/10/15 04:01:52;;;;;;;6.82;2.28;;;;;;;10.58;100.00;96313.22;6282702;22;20084;-78
2023/10/15 04:04:18;;;;;;;5.10;2.35;;;;;;;10.56;100.00;96309.03;6308817;22;20023;-78
2023/10/15 04:06:54;;;;;;;2.92;1.80;;;;;;;10.56;100.00;96315.16;6308851;22;20010;-78
2023/10/15 04:09:23;;;;;;;3.50;2.40;;;;;;;10.56;100.00;96301.97;6309194;22;20022;-79
2023/10/15 04:11:49;;;;;;;4.03;2.35;;;;;;;10.57;100.00;96295.75;6308457;22;19996;-78
2023/10/15 04:14:26;;;;;;;2.58;2.38;;;;;;;10.55;100.00;96297.69;6308936;22;20002;-78
2023/10/15 04:16:52;;;;;;;5.13;2.45;;;;;;;10.59;100.00;96295.59;6308725;22;20396;-79
2023/10/15 04:19:17;;;;;;;3.35;2.33;;;;;;;10.56;100.00;96294.09;6308659;22;20010;-78
2023/10/15 04:21:44;;;;;;;3.53;2.40;;;;;;;10.55;100.00;96300.31;6308649;22;20030;-78
2023/10/15 04:24:14;;;;;;;4.65;2.45;;;;;;;10.53;100.00;96294.34;6309081;22;20006;-79
2023/10/15 04:26:44;;;;;;;4.28;2.45;;;;;;;10.55;100.00;96291.56;6308468;22;20303;-79
2023/10/15 04:29:17;;;;;;;2.70;2.25;;;;;;;10.64;100.00;96275.03;6308551;22;20036;-79
2023/10/15 04:32:23;;;;;;;3.90;2.25;;;;;;;10.67;100.00;96277.41;6308666;22;20506;-78
2023/10/15 04:34:38;;;;;;;6.57;2.38;;;;;;;10.55;100.00;96279.25;6304911;22;20014;-79
2023/10/15 04:37:16;;;;;;;4.15;2.45;;;;;;;10.49;100.00;96285.00;6308891;22;19999;-79
2023/10/15 04:39:55;;;;;;;6.97;2.45;;;;;;;10.48;100.00;96285.16;6281243;22;20011;-78
2023/10/15 04:42:29;;;;;;;5.40;2.30;;;;;;;10.50;100.00;96280.59;6308897;22;20436;-78
2023/10/15 04:44:55;;;;;;;3.80;2.47;;;;;;;10.46;100.00;96280.00;6307820;22;20023;-78
2023/10/15 04:47:38;;;;;;;5.53;2.30;;;;;;;10.51;100.00;96279.63;6280754;22;20444;-78
2023/10/15 04:50:14;;;;;;;4.88;2.30;;;;;;;10.47;100.00;96284.28;6309429;22;20428;-78
2023/10/15 04:52:43;;;;;;;5.03;2.42;;;;;;;10.46;100.00;96293.16;6308217;22;20022;-78
2023/10/15 04:55:13;;;;;;;5.53;2.25;;;;;;;10.44;100.00;96305.63;6307886;22;20003;-78
2023/10/15 04:57:39;;;;;;;3.63;2.50;;;;;;;10.43;100.00;96310.06;6307135;22;20038;-78
2023/10/15 05:00:06;;;;;;;4.50;2.40;;;;;;;10.43;100.00;96303.94;6308252;22;20317;-78
2023/10/15 05:02:35;;;;;;;5.53;2.78;;;;;;;10.43;100.00;96312.69;6307933;22;20003;-78
2023/10/15 05:05:05;;;;;;;3.85;2.10;;;;;;;10.41;100.00;96298.81;6281253;22;20003;-78
2023/10/15 05:07:31;;;;;;;2.78;1.90;;;;;;;10.43;100.00;96301.31;6307912;22;20335;-78
2023/10/15 05:09:58;;;;;;;3.85;2.33;;;;;;;10.36;100.00;96308.03;6309405;22;20090;-78
2023/10/15 05:12:23;;;;;;;3.83;2.20;;;;;;;10.37;100.00;96314.94;6308387;22;19995;-78
2023/10/15 05:14:49;;;;;;;5.25;2.30;;;;;;;10.38;100.00;96327.16;6308027;22;19999;-78
2023/10/15 05:17:17;;;;;;;3.45;2.08;;;;;;;10.32;100.00;96337.22;6308334;22;20103;-78
2023/10/15 05:19:42;;;;;;;3.60;2.03;;;;;;;10.34;100.00;96331.81;6308232;22;20070;-78
2023/10/15 05:22:09;;;;;;;3.83;2.20;;;;;;;10.31;100.00;96325.03;6307401;22;20033;-78
2023/10/15 05:24:35;;;;;;;2.72;2.30;;;;;;;10.33;100.00;96322.25;6305994;22;20082;-77
2023/10/15 05:27:00;;;;;;;4.65;2.20;;;;;;;10.32;100.00;96316.16;6307749;22;20376;-78
2023/10/15 05:29:26;;;;;;;4.00;2.20;;;;;;;10.28;100.00;96330.53;6307784;22;20007;-77
2023/10/15 05:31:53;;;;;;;3.00;2.35;;;;;;;10.27;100.00;96342.00;6307524;22;19992;-78
2023/10/15 05:34:19;;;;;;;3.50;2.05;;;;;;;10.30;100.00;96341.78;6308031;22;20092;-78
2023/10/15 05:36:45;;;;;;;3.75;2.45;;;;;;;10.35;100.00;96332.66;6280863;22;20041;-78
2023/10/15 05:39:10;;;;;;;3.10;2.22;;;;;;;10.36;100.00;96326.44;6308289;22;20104;-78
2023/10/15 05:41:37;;;;;;;4.63;2.42;;;;;;;10.35;100.00;96330.03;6307262;22;20082;-78
2023/10/15 05:44:02;;;;;;;3.25;2.35;;;;;;;10.32;100.00;96339.84;6308230;22;20618;-78
2023/10/15 05:46:28;;;;;;;4.07;2.30;;;;;;;10.32;100.00;96326.69;6307538;22;20026;-78
2023/10/15 05:48:59;;;;;;;4.78;2.88;;;;;;;10.37;100.00;96333.38;6308260;22;19999;-78
2023/10/15 05:51:24;;;;;;;2.72;2.28;;;;;;;10.34;100.00;96338.91;6306888;22;20305;-77
2023/10/15 05:53:50;;;;;;;4.25;2.20;;;;;;;10.31;100.00;96346.09;6305992;22;19999;-78
2023/10/15 05:56:16;;;;;;;3.10;1.88;;;;;;;10.32;100.00;96337.22;6279735;22;19995;-78
2023/10/15 05:58:42;;;;;;;2.63;2.15;;;;;;;10.33;100.00;96319.63;6307903;22;20006;-78
2023/10/15 06:01:07;;;;;;;3.53;2.40;;;;;;;10.36;100.00;96311.47;6307467;22;19999;-77
2023/10/15 06:03:34;;;;;;;3.20;2.00;;;;;;;10.37;100.00;96320.22;6307621;22;20022;-78
2023/10/15 06:05:59;;;;;;;6.07;2.30;;;;;;;10.26;100.00;96329.81;6280014;22;20003;-78
2023/10/15 06:08:25;;;;;;;3.10;2.10;;;;;;;10.24;100.00;96331.72;6307686;22;20045;-78
2023/10/15 06:10:50;;;;;;;3.97;2.40;;;;;;;10.23;100.00;96332.69;6308110;22;20002;-78
2023/10/15 06:13:16;;;;;;;2.92;2.58;;;;;;;10.27;100.00;96349.91;6308806;22;20003;-78
2023/10/15 06:15:42;;;;;;;3.30;2.30;;;;;;;10.23;100.00;96343.22;6307584;22;20287;-78
2023/10/15 06:18:09;;;;;;;5.32;2.15;;;;;;;10.21;100.00;96337.25;6307479;22;19995;-78
2023/10/15 06:20:34;;;;;;;2.28;1.80;;;;;;;10.20;100.00;96351.34;6307302;22;20006;-78
2023/10/15 06:23:03;;;;;;;4.10;2.40;;;;;;;10.19;100.00;96349.69;6307433;22;19999;-78
2023/10/15 06:25:29;;;;;;;3.13;2.40;;;;;;;10.20;100.00;96354.00;6307050;22;20311;-77
2023/10/15 06:27:55;;;;;;;3.97;2.30;;;;;;;10.24;100.00;96352.78;6308323;22;20003;-78
2023/10/15 06:30:21;;;;;;;3.40;2.15;;;;;;;10.25;100.00;96354.44;6307504;22;20101;-77
2023/10/15 06:32:47;;;;;;;5.60;2.28;;;;;;;10.25;100.00;96358.91;6307503;22;20038;-78
2023/10/15 06:35:18;;;;;;;2.65;2.00;;;;;;;10.30;100.00;96352.31;6307443;22;20007;-78
2023/10/15 06:37:50;;;;;;;2.97;2.10;;;;;;;10.31;100.00;96340.81;6307491;22;19995;-78
2023/10/15 06:40:16;;;;;;;4.68;2.20;;;;;;;10.42;100.00;96328.59;6280160;22;20003;-78
2023/10/15 06:42:43;;;;;;;3.78;2.38;;;;;;;10.41;100.00;96337.47;6307884;22;20409;-78
2023/10/15 06:45:09;;;;;;;4.43;2.53;;;;;;;10.48;100.00;96332.53;6306941;22;20005;-78
2023/10/15 06:47:36;;;;;;;5.15;2.17;;;;;;;10.44;100.00;96337.19;6309981;22;20007;-78
2023/10/15 06:50:06;;;;;;;5.45;2.45;;;;;;;10.42;100.00;96347.88;6308881;22;20302;-77
2023/10/15 06:52:36;;;;;;;2.13;1.98;;;;;;;10.51;100.00;96348.94;6309501;22;20007;-79
2023/10/15 06:55:01;;;;;;;3.10;2.10;;;;;;;10.44;100.00;96347.72;6309575;22;20408;-78
2023/10/15 06:57:27;;;;;;;3.28;2.15;;;;;;;10.47;100.00;96344.84;6309430;22;20058;-78
2023/10/15 06:59:52;;;;;;;3.10;2.10;;;;;;;10.50;100.00;96336.72;6309567;22;20070;-78
2023/10/15 07:02:18;;;;;;;3.72;2.22;;;;;;;10.50;100.00;96346.41;6308730;22;20834;-78
2023/10/15 07:04:43;;;;;;;2.70;2.10;;;;;;;10.51;100.00;96338.41;6309397;22;20023;-78
2023/10/15 07:07:09;;;;;;;4.47;2.17;;;;;;;10.64;100.00;96338.22;6309203;22;20401;-78
2023/10/15 07:09:36;;;;;;;3.08;2.17;;;;;;;10.58;100.00;96336.91;6309806;22;20003;-78
2023/10/15 07:12:01;;;;;;;3.08;1.90;;;;;;;10.70;100.00;96339.47;6282188;22;20294;-78
2023/10/15 07:14:27;;;;;;;3.33;2.05;;;;;;;10.62;100.00;96350.69;6309443;22;20046;-79
2023/10/15 07:16:52;;;;;;;3.42;1.88;;;;;;;10.65;100.00;96353.06;6309460;22;20066;-79
2023/10/15 07:19:18;;;;;;;3.60;1.98;;;;;;;10.61;100.00;96359.53;6309746;22;20034;-78
2023/10/15 07:21:43;;;;;;;3.95;1.95;;;;;;;10.59;100.00;96357.03;6308312;22;20039;-78
2023/10/15 07:24:11;;;;;;;5.75;2.00;;;;;;;10.64;100.00;96361.91;6308859;22;20320;-78
2023/10/15 07:26:39;;;;;;;8.15;2.22;;;;;;;10.67;100.00;96352.91;6307459;22;20010;-78
2023/10/15 07:29:05;;;;;;;4.35;1.80;;;;;;;10.68;100.00;96354.59;6309216;22;19995;-78
2023/10/15 07:31:30;;;;;;;3.72;2.22;;;;;;;10.68;100.00;96352.78;6282155;22;19995;-79
2023/10/15 07:33:56;;;;;;;4.32;2.13;;;;;;;10.66;100.00;96352.09;6309662;22;20195;-77
2023/10/15 07:36:22;;;;;;;2.63;1.90;;;;;;;10.73;100.00;96344.53;6309122;22;20302;-77
2023/10/15 07:38:47;;;;;;;3.25;2.17;;;;;;;10.78;100.00;96344.97;6309062;22;19999;-79
2023/10/15 07:41:13;;;;;;;3.22;2.03;;;;;;;10.93;100.00;96349.91;6309408;22;20045;-80
2023/10/15 07:43:38;;;;;;;2.00;1.70;;;;;;;10.92;100.00;96351.72;6309026;22;20003;-79
2023/10/15 07:46:04;;;;;;;4.10;1.80;;;;;;;10.87;100.00;96353.91;6309423;22;20022;-78
2023/10/15 07:48:29;;;;;;;2.53;2.03;;;;;;;10.88;100.00;96345.06;6309021;22;20066;-79
2023/10/15 07:50:55;;;;;;;3.70;1.98;;;;;;;10.93;100.00;96348.13;6307183;22;20480;-78
2023/10/15 07:53:21;;;;;;;2.90;1.90;;;;;;;10.94;100.00;96351.59;6308980;22;20003;-78
2023/10/15 07:55:46;;;;;;;3.28;2.10;;;;;;;10.96;100.00;96349.69;6308810;22;19995;-77
2023/10/15 07:58:12;;;;;;;1.98;1.88;;;;;;;11.02;100.00;96359.69;6308362;22;20003;-78
2023/10/15 08:00:37;;;;;;;3.17;1.90;;;;;;;11.00;100.00;96346.63;6308765;22;20003;-78
2023/10/15 08:03:07;;;;;;;2.80;2.00;;;;;;;11.01;100.00;96347.50;6308741;22;20012;-80
2023/10/15 08:05:33;;;;;;;6.38;2.33;;;;;;;11.00;100.00;96349.28;6308815;22;20011;-79
2023/10/15 08:08:00;;;;;;;4.68;2.22;;;;;;;11.09;100.00;96341.59;6308713;22;20413;-79
2023/10/15 08:10:32;;;;;;;2.95;2.30;;;;;;;11.08;100.00;96346.00;6308131;22;20009;-79
2023/10/15 08:12:58;;;;;;;3.85;1.80;;;;;;;11.08;100.00;96343.38;6281602;22;19999;-78
2023/10/15 08:15:24;;;;;;;4.90;1.70;;;;;;;11.08;100.00;96340.72;6308010;22;20006;-77
2023/10/15 08:17:50;;;;;;;3.17;1.85;;;;;;;11.14;100.00;96340.22;6282702;22;20035;-76
2023/10/15 08:20:16;;;;;;;2.60;2.00;;;;;;;11.26;100.00;96338.31;6308996;22;20003;-76
2023/10/15 08:22:44;;;;;;;2.65;1.92;;;;;;;11.24;100.00;96347.34;6308463;22;20014;-77
2023/10/15 08:25:14;;;;;;;4.45;2.08;;;;;;;11.24;100.00;96350.00;6308624;22;20435;-76
2023/10/15 08:27:44;;;;;;;2.03;1.90;;;;;;;11.21;100.00;96353.72;6310043;22;20027;-77
2023/10/15 08:30:14;;;;;;;4.25;2.15;;;;;;;11.21;100.00;96363.44;6282206;22;20434;-76
2023/10/15 08:32:40;;;;;;;2.17;1.98;;;;;;;11.24;100.00;96366.63;6308922;22;20025;-76
2023/10/15 08:35:08;;;;;;;3.25;2.00;;;;;;;11.25;100.00;96362.19;6308906;22;20424;-76
2023/10/15 08:37:35;;;;;;;3.25;1.95;;;;;;;11.22;100.00;96359.81;6308353;22;20041;-76
2023/10/15 08:40:04;;;;;;;4.43;2.40;;;;;;;11.26;100.00;96364.69;6308691;22;20003;-76
2023/10/15 08:42:35;;;;;;;3.95;1.98;;;;;;;11.25;100.00;96359.56;6306746;22;19999;-78
2023/10/15 08:45:04;;;;;;;4.63;2.13;;;;;;;11.27;100.00;96358.47;6307690;22;20040;-76
2023/10/15 08:47:34;;;;;;;4.63;2.10;;;;;;;11.25;100.00;96370.09;6282144;22;20074;-76
2023/10/15 08:50:00;;;;;;;3.83;1.98;;;;;;;11.20;100.00;96364.41;6307912;22;20018;-76
2023/10/15 08:52:27;;;;;;;4.47;2.17;;;;;;;11.32;100.00;96366.81;6308012;22;20019;-76
2023/10/15 08:54:54;;;;;;;4.32;2.20;;;;;;;11.36;100.00;96359.47;6307951;22;20401;-76
2023/10/15 08:57:21;;;;;;;3.65;2.30;;;;;;;11.36;100.00;96356.84;6308567;22;20105;-76
2023/10/15 08:59:48;;;;;;;2.83;1.98;;;;;;;11.38;100.00;96356.72;6280384;22;20003;-76
2023/10/15 09:02:15;;;;;;;2.38;1.83;;;;;;;11.43;100.00;96365.91;6307618;22;20413;-76
2023/10/15 09:04:44;;;;;;;3.53;2.33;;;;;;;11.49;100.00;96367.16;6307331;22;20486;-76
2023/10/15 09:07:12;;;;;;;2.78;1.83;;;;;;;11.64;100.00;96366.84;6279654;22;20082;-77
2023/10/15 09:09:37;;;;;;;3.83;1.95;;;;;;;11.68;100.00;96357.69;6306413;22;20014;-76
2023/10/15 09:12:06;;;;;;;5.32;2.13;;;;;;;11.72;100.00;96353.84;6306207;22;19999;-77
2023/10/15 09:14:46;;;;;;;2.80;2.30;;;;;;;11.93;100.00;96345.00;6279311;22;20033;-76
2023/10/15 09:17:14;;;;;;;2.97;2.05;;;;;;;11.88;100.00;96335.69;6306629;22;20140;-76
2023/10/15 09:19:48;;;;;;;3.13;2.05;;;;;;;11.89;100.00;96339.16;6306155;22;20003;-76
2023/10/15 09:22:17;;;;;;;2.75;2.10;;;;;;;11.83;100.00;96340.53;6308658;22;20034;-76
2023/10/15 09:24:46;;;;;;;4.80;2.58;;;;;;;11.88;100.00;96343.59;6308156;22;20008;-75
2023/10/15 09:27:13;;;;;;;3.35;2.15;;;;;;;11.85;100.00;96337.78;6308586;22;19999;-76
2023/10/15 09:29:40;;;;;;;4.47;2.20;;;;;;;11.83;100.00;96337.06;6307523;22;20086;-76
2023/10/15 09:32:06;;;;;;;9.85;2.70;;;;;;;11.88;100.00;96332.22;6308706;22;19991;-76
2023/10/15 09:34:33;;;;;;;5.32;2.28;;;;;;;11.90;100.00;96330.28;6308042;22;20294;-75
2023/10/15 09:36:59;;;;;;;2.60;2.05;;;;;;;12.13;100.00;96335.38;6308305;22;20474;-76
2023/10/15 09:39:31;;;;;;;6.18;2.30;;;;;;;12.19;100.00;96334.81;6308518;22;20434;-76
2023/10/15 09:42:02;;;;;;;3.25;2.17;;;;;;;12.29;100.00;96322.50;6309256;22;20011;-75
2023/10/15 09:44:28;;;;;;;3.50;2.20;;;;;;;12.36;100.00;96325.38;6308214;22;20006;-76
2023/10/15 09:46:54;;;;;;;3.13;1.83;;;;;;;12.49;100.00;96327.78;6307502;22;20136;-76
2023/10/15 09:49:20;;;;;;;3.65;1.90;;;;;;;12.52;100.00;96324.00;6308203;22;19999;-76
2023/10/15 09:51:47;;;;;;;4.50;1.95;;;;;;;12.56;100.00;96325.41;6308025;22;20011;-76
2023/10/15 09:54:14;;;;;;;4.38;2.08;;;;;;;12.54;100.00;96315.00;6281097;22;19999;-76
2023/10/15 09:56:41;;;;;;;4.43;1.90;;;;;;;12.49;100.00;96316.38;6307519;22;20003;-76
2023/10/15 09:59:09;;;;;;;3.65;1.92;;;;;;;12.34;100.00;96318.59;6308393;22;20437;-76
2023/10/15 10:01:40;;;;;;;4.55;2.17;;;;;;;12.07;100.00;96335.91;6254879;22;20018;-77
2023/10/15 10:04:40;;;;;;;3.80;2.13;;;;;;;12.00;100.00;96338.22;6280777;22;20026;-76
2023/10/15 10:07:11;;;;;;;2.55;1.98;;;;;;;12.14;100.00;96345.78;6280958;22;20021;-76
2023/10/15 10:10:01;;;;;;;3.63;2.00;;;;;;;12.27;100.00;96329.72;6307221;22;20025;-76
2023/10/15 10:12:49;;;;;;;4.45;1.80;;;;;;;12.35;100.00;96326.34;6280179;22;20003;-76
2023/10/15 10:15:33;;;;;;;2.50;1.90;;;;;;;12.35;100.00;96313.16;6307516;22;19999;-76
2023/10/15 10:17:59;;;;;;;2.13;1.92;;;;;;;12.35;100.00;96315.81;6306525;22;20070;-79
2023/10/15 10:20:37;;;;;;;4.05;1.98;;;;;;;12.40;100.00;96316.25;6307225;22;20014;-77
2023/10/15 10:23:05;;;;;;;3.30;1.90;;;;;;;12.57;100.00;96311.22;6311669;22;20283;-75
2023/10/15 10:25:52;;;;;;;2.58;1.88;;;;;;;12.52;100.00;96306.38;6310409;22;20009;-75
2023/10/15 10:28:22;;;;;;;2.42;2.05;;;;;;;12.27;100.00;96311.22;6308866;22;20011;-76
2023/10/15 10:30:56;;;;;;;4.35;2.30;;;;;;;12.21;100.00;96311.75;6309539;22;20316;-78
2023/10/15 10:33:46;;;;;;;4.55;2.25;;;;;;;12.22;100.00;96315.25;6310447;22;19999;-78
2023/10/15 10:36:14;;;;;;;3.50;2.38;;;;;;;12.27;100.00;96316.50;6310608;22;20009;-78
2023/10/15 10:39:07;;;;;;;5.47;2.40;;;;;;;12.39;100.00;96308.44;6310111;22;20006;-77
2023/10/15 10:41:37;;;;;;;5.00;2.33;;;;;;;12.44;100.00;96288.59;6310236;22;20030;-76
2023/10/15 10:44:07;;;;;;;3.33;2.35;;;;;;;12.56;100.00;96278.72;6311051;22;20003;-76
2023/10/15 10:46:41;;;;;;;4.65;1.98;;;;;;;12.65;100.00;96274.41;6309068;22;20302;-78
2023/10/15 10:49:13;;;;;;;5.07;2.30;;;;;;;12.77;100.00;96266.31;6310139;22;20097;-77
2023/10/15 10:51:40;;;;;;;2.47;2.00;;;;;;;12.78;100.00;96260.88;6309967;22;19995;-77
2023/10/15 10:54:05;;;;;;;4.47;2.00;;;;;;;12.86;100.00;96255.72;6310892;22;20017;-77
2023/10/15 10:56:40;;;;;;;2.72;1.80;;;;;;;12.92;100.00;96258.75;6310048;22;20353;-77
2023/10/15 10:59:09;;;;;;;2.75;1.90;;;;;;;12.90;100.00;96259.72;6311089;22;20082;-77
2023/10/15 11:01:39;;;;;;;3.42;1.90;;;;;;;13.02;100.00;96251.66;6310906;22;20030;-76
2023/10/15 11:04:13;;;;;;;3.78;1.70;;;;;;;13.11;100.00;96258.72;6310857;22;20011;-76
2023/10/15 11:06:45;;;;;;;2.25;2.05;;;;;;;13.26;100.00;96260.91;6310219;22;20007;-77
2023/10/15 11:09:22;;;;;;;4.43;2.15;;;;;;;13.20;100.00;96250.91;6310890;22;20056;-77
2023/10/15 11:11:52;;;;;;;4.47;1.90;;;;;;;13.10;100.00;96249.13;6310986;22;20010;-76
2023/10/15 11:14:26;;;;;;;5.03;1.98;;;;;;;13.09;100.00;96251.91;6284622;22;19999;-77
2023/10/15 11:16:56;;;;;;;3.33;1.90;;;;;;;13.02;100.00;96246.38;6311400;22;20000;-76
2023/10/15 11:19:26;;;;;;;3.30;2.17;;;;;;;13.05;100.00;96230.22;6310887;22;20022;-77
2023/10/15 11:21:52;;;;;;;4.63;2.60;;;;;;;13.17;100.00;96228.22;6310744;22;20423;-77
2023/10/15 11:24:19;;;;;;;6.60;2.10;;;;;;;13.43;100.00;96219.66;6310964;22;20006;-76
2023/10/15 11:26:46;;;;;;;2.08;1.60;;;;;;;13.46;100.00;96206.13;6310532;22;20033;-77
2023/10/15 11:29:13;;;;;;;4.60;2.08;;;;;;;13.66;100.00;96208.66;6310789;22;20023;-76
2023/10/15 11:31:44;;;;;;;3.08;1.95;;;;;;;13.45;100.00;96202.66;6308829;22;20002;-76
2023/10/15 11:34:19;;;;;;;3.97;1.70;;;;;;;13.54;100.00;96197.47;6282507;22;20003;-77
2023/10/15 11:36:48;;;;;;;;;;;;;;;13.68;100.00;96202.25;6309631;22;19999;-77
2023/10/15 11:39:37;;;;;;;3.70;1.85;;;;;;;13.78;100.00;96188.97;6309364;22;19907;-77